Time;durP1;ratioP1;P1;durP2;ratioP2;P2;SDS_P1;SDS_P2;PMS_P1;PMS_P2;Temp;Humidity;BMP_temperature;BMP_pressure;BME280_temperature;BME280_humidity;BME280_pressure;Samples;Min_cycle;Max_cycle;Signal;HPM_P1;HPM_P2
2022/10/24 00:02:24;;;;;;;;;;;;;;;-144.99;100.00;52439.94;5052721;28;19962;-76
2022/10/24 00:04:51;;;;;;;;;;;;;;;-144.99;100.00;52378.78;5047454;28;19945;-76
2022/10/24 00:07:17;;;;;;;;;;;;;;;-144.99;100.00;52407.31;5050005;28;20160;-76
2022/10/24 00:09:43;;;;;;;;;;;;;;;-144.99;100.00;52433.81;5050314;28;19968;-78
2022/10/24 00:12:10;;;;;;;;;;;;;;;-144.99;100.00;52417.53;5048925;28;19965;-79
2022/10/24 00:14:38;;;;;;;;;;;;;;;-144.99;100.00;52401.22;5045181;28;20339;-74
2022/10/24 00:17:06;;;;;;;;;;;;;;;-144.99;100.00;52415.47;5045723;28;20701;-73
2022/10/24 00:19:32;;;;;;;;;;;;;;;-144.99;100.00;52407.31;4696713;28;10000118;-75
2022/10/24 00:21:59;;;;;;;;;;;;;;;-144.99;100.00;52419.56;5050664;28;20348;-75
2022/10/24 00:24:25;;;;;;;;;;;;;;;-144.99;100.00;52401.22;5050145;28;19941;-74
2022/10/24 00:26:52;;;;;;;;;;;;;;;-144.99;100.00;52397.13;5049576;28;19948;-77
2022/10/24 00:29:18;;;;;;;;;;;;;;;-144.99;100.00;52358.41;5050055;28;20334;-76
2022/10/24 00:31:46;;;;;;;;;;;;;;;-144.99;100.00;52407.31;5054473;28;19936;-77
2022/10/24 00:34:12;;;;;;;;;;;;;;;-144.99;100.00;52427.72;5051485;28;20027;-77
2022/10/24 00:36:38;;;;;;;;;;;;;;;-144.99;100.00;52423.63;5049617;28;20407;-74
2022/10/24 00:39:05;;;;;;;;;;;;;;;-144.99;100.00;52366.56;5049928;28;20303;-76
2022/10/24 00:41:33;;;;;;;;;;;;;;;-144.99;100.00;52444.03;5045742;28;20446;-76
2022/10/24 00:44:12;;;;;;;;;;;;;;;-144.99;100.00;52378.78;5049456;28;19961;-76
2022/10/24 00:46:40;;;;;;;;;;;;;;;-144.99;100.00;52439.94;5052441;28;19929;-74
2022/10/24 00:49:12;;;;;;;;;;;;;;;-144.99;100.00;52433.81;5052411;28;19947;-75
2022/10/24 00:51:38;;;;;;;;;;;;;;;-144.99;100.00;52425.66;5048365;28;20177;-75
2022/10/24 00:54:08;;;;;;;;;;;;;;;-144.99;100.00;52382.88;5054216;28;19935;-76
2022/10/24 00:56:37;;;;;;;;;;;;;;;-144.99;100.00;52427.72;5053525;28;19938;-74
2022/10/24 00:59:05;;;;;;;;;;;;;;;-144.99;100.00;52407.31;5046759;28;20573;-77
2022/10/24 01:01:32;;;;;;;;;;;;;;;-144.99;100.00;52439.94;5048797;28;20046;-76
2022/10/24 01:03:59;;;;;;;;;;;;;;;-144.99;100.00;52419.56;5052511;28;19982;-78
2022/10/24 01:06:36;;;;;;;;;;;;;;;-144.99;100.00;52386.94;5048250;28;19935;-77
2022/10/24 01:09:09;;;;;;;;;;;;;;;-144.99;100.00;52409.38;5047592;28;19941;-76
2022/10/24 01:11:42;;;;;;;;;;;;;;;-144.99;100.00;52435.88;5053650;28;19958;-75
2022/10/24 01:14:15;;;;;;;;;;;;;;;-144.99;100.00;52419.56;5046205;28;19929;-75
2022/10/24 01:16:46;;;;;;;;;;;;;;;-144.99;100.00;52419.56;5049761;28;19968;-74
2022/10/24 01:19:26;;;;;;;;;;;;;;;-144.99;100.00;52395.09;5052149;28;20330;-73
2022/10/24 01:21:56;;;;;;;;;;;;;;;-144.99;100.00;52419.56;5049162;28;19970;-73
2022/10/24 01:24:32;;;;;;;;;;;;;;;-144.99;100.00;52403.25;5051893;28;19958;-75
2022/10/24 01:27:19;;;;;;;;;;;;;;;-144.99;100.00;52407.31;5062911;28;19940;-77
2022/10/24 01:29:54;;;;;;;;;;;;;;;-144.99;100.00;52391.03;5043445;28;19954;-79
2022/10/24 01:32:27;;;;;;;;;;;;;;;-144.99;100.00;52417.53;5055599;28;19978;-77
2022/10/24 01:34:57;;;;;;;;;;;;;;;-144.99;100.00;52411.41;5069553;28;19948;-74
2022/10/24 01:37:27;;;;;;;;;;;;;;;-144.99;100.00;52435.88;5063013;28;19924;-75
2022/10/24 01:39:56;;;;;;;;;;;;;;;-144.99;100.00;52407.31;5053500;28;19959;-74
2022/10/24 01:42:25;;;;;;;;;;;;;;;-144.99;100.00;52439.94;5052918;28;19970;-72
2022/10/24 01:44:56;;;;;;;;;;;;;;;-144.99;100.00;52427.72;5071897;28;19943;-76
2022/10/24 01:47:24;;;;;;;;;;;;;;;-144.99;100.00;52435.88;5072916;28;19958;-75
2022/10/24 01:49:53;;;;;;;;;;;;;;;-144.99;100.00;52407.31;5052394;28;19968;-74
2022/10/24 01:52:20;;;;;;;;;;;;;;;-144.99;100.00;52419.56;5052024;28;19972;-74
2022/10/24 01:54:48;;;;;;;;;;;;;;;-144.99;100.00;52427.72;5064388;28;19949;-75
2022/10/24 01:57:15;;;;;;;;;;;;;;;-144.99;100.00;52399.19;5064806;28;19938;-77
2022/10/24 01:59:43;;;;;;;;;;;;;;;-144.99;100.00;52456.25;5054791;28;19961;-76
2022/10/24 02:02:13;;;;;;;;;;;;;;;-144.99;100.00;52458.28;5053172;28;20219;-75
2022/10/24 02:04:42;;;;;;;;;;;;;;;-144.99;100.00;52425.66;5058215;28;19952;-75
2022/10/24 02:07:11;;;;;;;;;;;;;;;-144.99;100.00;52403.25;5065813;28;19949;-79
2022/10/24 02:09:39;;;;;;;;;;;;;;;-144.99;100.00;52391.03;5060672;28;19959;-76
2022/10/24 02:12:07;;;;;;;;;;;;;;;-144.99;100.00;52391.03;5053029;28;19943;-78
2022/10/24 02:14:35;;;;;;;;;;;;;;;-144.99;100.00;52358.41;5055865;28;19946;-77
2022/10/24 02:17:02;;;;;;;;;;;;;;;-144.99;100.00;52423.63;5051813;28;19951;-75
2022/10/24 02:19:31;;;;;;;;;;;;;;;-144.99;100.00;52435.88;5055352;28;19939;-75
2022/10/24 02:22:01;;;;;;;;;;;;;;;-144.99;100.00;52452.16;5053870;28;19949;-74
2022/10/24 02:24:29;;;;;;;;;;;;;;;-144.99;100.00;52460.31;5056438;28;19934;-74
2022/10/24 02:26:57;;;;;;;;;;;;;;;-144.99;100.00;52395.09;5054236;28;19945;-76
2022/10/24 02:29:25;;;;;;;;;;;;;;;-144.99;100.00;52411.41;5053303;28;20313;-75
2022/10/24 02:31:53;;;;;;;;;;;;;;;-144.99;100.00;52415.47;5061150;28;20096;-74
2022/10/24 02:34:22;;;;;;;;;;;;;;;-144.99;100.00;52415.47;5061618;28;19940;-74
2022/10/24 02:36:51;;;;;;;;;;;;;;;-144.99;100.00;52403.25;5055878;28;19943;-73
2022/10/24 02:39:19;;;;;;;;;;;;;;;-144.99;100.00;52435.88;5052577;28;20456;-72
2022/10/24 02:41:46;;;;;;;;;;;;;;;-144.99;100.00;52407.31;5052195;28;19954;-76
2022/10/24 02:44:13;;;;;;;;;;;;;;;-144.99;100.00;52435.88;5051786;28;19959;-73
2022/10/24 02:46:40;;;;;;;;;;;;;;;-144.99;100.00;52439.94;5051579;28;19937;-75
2022/10/24 02:49:07;;;;;;;;;;;;;;;-144.99;100.00;52431.78;5054510;28;19942;-75
2022/10/24 02:51:35;;;;;;;;;;;;;;;-144.99;100.00;52458.28;5054035;28;19960;-77
2022/10/24 02:54:03;;;;;;;;;;;;;;;-144.99;100.00;52435.88;5051031;28;20193;-75
2022/10/24 02:56:30;;;;;;;;;;;;;;;-144.99;100.00;52423.63;5056954;28;19969;-78
2022/10/24 02:58:56;;;;;;;;;;;;;;;-144.99;100.00;52433.81;5057751;28;19958;-76
2022/10/24 03:01:23;;;;;;;;;;;;;;;-144.99;100.00;52386.94;5054307;28;20391;-76
2022/10/24 03:03:49;;;;;;;;;;;;;;;-144.99;100.00;52450.13;5052646;28;19960;-78
2022/10/24 03:06:15;;;;;;;;;;;;;;;-144.99;100.00;52448.09;5048539;28;19937;-78
2022/10/24 03:08:42;;;;;;;;;;;;;;;-144.99;100.00;52435.88;5053270;28;19945;-77
2022/10/24 03:11:09;;;;;;;;;;;;;;;-144.99;100.00;52419.56;5053360;28;19960;-75
2022/10/24 03:13:36;;;;;;;;;;;;;;;-144.99;100.00;52444.03;5053183;28;20399;-79
2022/10/24 03:16:03;;;;;;;;;;;;;;;-144.99;100.00;52429.75;5048353;28;20168;-77
2022/10/24 03:18:29;;;;;;;;;;;;;;;-144.99;100.00;52460.31;5053396;28;20368;-79
2022/10/24 03:20:56;;;;;;;;;;;;;;;-144.99;100.00;52427.72;5052500;28;19955;-74
2022/10/24 03:23:24;;;;;;;;;;;;;;;-144.99;100.00;52429.75;5048787;28;19956;-76
2022/10/24 03:25:50;;;;;;;;;;;;;;;-144.99;100.00;52419.56;5089530;22;20005;-71
2022/10/24 03:28:18;;;;;;;;;;;;;;;-144.99;100.00;52444.03;5073620;28;20508;-71
2022/10/24 03:30:44;;;;;;;;;;;;;;;-144.99;100.00;52427.72;5081313;28;19937;-72
2022/10/24 03:33:11;;;;;;;;;;;;;;;-144.99;100.00;52407.31;5080173;28;19943;-73
2022/10/24 03:35:37;;;;;;;;;;;;;;;-144.99;100.00;52391.03;5075591;28;19950;-71
2022/10/24 03:38:03;;;;;;;;;;;;;;;-144.99;100.00;52427.72;5063793;28;20201;-73
2022/10/24 03:40:30;;;;;;;;;;;;;;;-144.99;100.00;52435.88;5063059;28;19943;-73
2022/10/24 03:42:56;;;;;;;;;;;;;;;-144.99;100.00;52415.47;5069520;28;19971;-74
2022/10/24 03:45:24;;;;;;;;;;;;;;;-144.99;100.00;52423.63;5058659;28;19951;-72
2022/10/24 03:47:50;;;;;;;;;;;;;;;-144.99;100.00;52456.25;5065527;28;19945;-72
2022/10/24 03:50:17;;;;;;;;;;;;;;;-144.99;100.00;52417.53;5060501;28;19952;-73
2022/10/24 03:52:43;;;;;;;;;;;;;;;-144.99;100.00;52419.56;5057319;28;19948;-72
2022/10/24 03:55:10;;;;;;;;;;;;;;;-144.99;100.00;52411.41;5063835;28;19965;-74
2022/10/24 03:57:36;;;;;;;;;;;;;;;-144.99;100.00;52423.63;5066744;28;20224;-75
2022/10/24 04:00:03;;;;;;;;;;;;;;;-144.99;100.00;52407.31;5059014;28;20336;-73
2022/10/24 04:02:31;;;;;;;;;;;;;;;-144.99;100.00;52431.78;5058733;28;19936;-73
2022/10/24 04:04:57;;;;;;;;;;;;;;;-144.99;100.00;52441.97;5068195;28;20693;-75
2022/10/24 04:07:24;;;;;;;;;;;;;;;-144.99;100.00;52431.78;5066532;28;19971;-75
2022/10/24 04:09:50;;;;;;;;;;;;;;;-144.99;100.00;52452.16;5087839;28;20882;-71
2022/10/24 04:12:17;;;;;;;;;;;;;;;-144.99;100.00;52415.47;5079049;28;19941;-72
2022/10/24 04:14:43;;;;;;;;;;;;;;;-144.99;100.00;52456.25;5075658;28;19936;-71
2022/10/24 04:17:09;;;;;;;;;;;;;;;-144.99;100.00;52435.88;5062647;28;20504;-71
2022/10/24 04:19:37;;;;;;;;;;;;;;;-144.99;100.00;52425.66;5061303;28;20817;-72
2022/10/24 04:22:03;;;;;;;;;;;;;;;-144.99;100.00;52427.72;5057565;28;19942;-71
2022/10/24 04:24:30;;;;;;;;;;;;;;;-144.99;100.00;52391.03;5073745;28;19956;-71
2022/10/24 04:26:56;;;;;;;;;;;;;;;-144.99;100.00;52423.63;5083718;28;19964;-72
2022/10/24 04:29:23;;;;;;;;;;;;;;;-144.99;100.00;52419.56;5082359;28;19938;-72
2022/10/24 04:31:49;;;;;;;;;;;;;;;-144.99;100.00;52423.63;5077651;28;19945;-72
2022/10/24 04:34:16;;;;;;;;;;;;;;;-144.99;100.00;52415.47;5078577;28;19938;-73
2022/10/24 04:36:43;;;;;;;;;;;;;;;-144.99;100.00;52448.09;5078019;28;20217;-71
2022/10/24 04:39:10;;;;;;;;;;;;;;;-144.99;100.00;52439.94;5084610;28;19942;-71
2022/10/24 04:41:36;;;;;;;;;;;;;;;-144.99;100.00;52431.78;5086494;28;20237;-76
2022/10/24 04:44:03;;;;;;;;;;;;;;;-144.99;100.00;52419.56;5090733;28;20329;-75
2022/10/24 04:46:29;;;;;;;;;;;;;;;-144.99;100.00;52435.88;5084232;28;19964;-74
2022/10/24 04:48:55;;;;;;;;;;;;;;;-144.99;100.00;52419.56;5076317;28;20099;-72
2022/10/24 04:51:22;;;;;;;;;;;;;;;-144.99;100.00;52423.63;5075284;28;19941;-74
2022/10/24 04:53:50;;;;;;;;;;;;;;;-144.99;100.00;52407.31;5080755;28;20453;-74
2022/10/24 04:56:16;;;;;;;;;;;;;;;-144.99;100.00;52448.09;5080562;28;19962;-73
2022/10/24 04:58:43;;;;;;;;;;;;;;;-144.99;100.00;52444.03;5083623;28;20381;-73
2022/10/24 05:01:09;;;;;;;;;;;;;;;-144.99;100.00;52441.97;5082255;28;19947;-74
2022/10/24 05:03:35;;;;;;;;;;;;;;;-144.99;100.00;52391.03;5084882;28;19973;-74
2022/10/24 05:06:02;;;;;;;;;;;;;;;-144.99;100.00;52421.59;5090986;28;19924;-75
2022/10/24 05:08:28;;;;;;;;;;;;;;;-144.99;100.00;52423.63;5110053;28;19985;-74
2022/10/24 05:10:56;;;;;;;;;;;;;;;-144.99;100.00;52444.03;5112203;28;20055;-74
2022/10/24 05:13:22;;;;;;;;;;;;;;;-144.99;100.00;52415.47;5082023;28;19941;-74
2022/10/24 05:15:48;;;;;;;;;;;;;;;-144.99;100.00;52415.47;5084534;28;19961;-73
2022/10/24 05:18:15;;;;;;;;;;;;;;;-144.99;100.00;52415.47;5087510;28;19924;-73
2022/10/24 05:20:41;;;;;;;;;;;;;;;-144.99;100.00;52419.56;5086478;28;20187;-73
2022/10/24 05:23:08;;;;;;;;;;;;;;;-144.99;100.00;52421.59;5082389;28;20087;-75
2022/10/24 05:25:34;;;;;;;;;;;;;;;-144.99;100.00;52423.63;5088973;28;20034;-77
2022/10/24 05:28:02;;;;;;;;;;;;;;;-144.99;100.00;52419.56;4733734;28;10000379;-75
2022/10/24 05:30:28;;;;;;;;;;;;;;;-144.99;100.00;52417.53;5082919;28;19934;-77
2022/10/24 05:32:55;;;;;;;;;;;;;;;-144.99;100.00;52423.63;5085875;28;20380;-76
2022/10/24 05:35:21;;;;;;;;;;;;;;;-144.99;100.00;52435.88;5083247;28;20422;-77
2022/10/24 05:37:47;;;;;;;;;;;;;;;-144.99;100.00;52386.94;5091004;28;19948;-77
2022/10/24 05:40:14;;;;;;;;;;;;;;;-144.99;100.00;52452.16;5091010;28;19942;-76
2022/10/24 05:42:41;;;;;;;;;;;;;;;-144.99;100.00;52415.47;5088904;28;19959;-77
2022/10/24 05:45:10;;;;;;;;;;;;;;;-144.99;100.00;52448.09;5085832;28;19965;-77
2022/10/24 05:47:36;;;;;;;;;;;;;;;-144.99;100.00;52413.44;5088674;28;20341;-76
2022/10/24 05:50:03;;;;;;;;;;;;;;;-144.99;100.00;52439.94;5088287;28;20308;-76
2022/10/24 05:52:30;;;;;;;;;;;;;;;-144.99;100.00;52431.78;5085873;28;19940;-77
2022/10/24 05:54:56;;;;;;;;;;;;;;;-144.99;100.00;52407.31;5086150;28;19951;-76
2022/10/24 05:57:23;;;;;;;;;;;;;;;-144.99;100.00;52397.13;5088513;28;19938;-77
2022/10/24 05:59:49;;;;;;;;;;;;;;;-144.99;100.00;52407.31;5088716;28;20355;-77
2022/10/24 06:02:18;;;;;;;;;;;;;;;-144.99;100.00;52423.63;5089317;28;19952;-77
2022/10/24 06:04:45;;;;;;;;;;;;;;;-144.99;100.00;52415.47;5108333;28;19994;-78
2022/10/24 06:07:11;;;;;;;;;;;;;;;-144.99;100.00;52448.09;5114050;28;19962;-78
2022/10/24 06:09:39;;;;;;;;;;;;;;;-144.99;100.00;52421.59;5099468;28;20002;-77
2022/10/24 06:12:07;;;;;;;;;;;;;;;-144.99;100.00;52456.25;5090642;28;19947;-76
2022/10/24 06:14:33;;;;;;;;;;;;;;;-144.99;100.00;52444.03;5087568;28;19942;-73
2022/10/24 06:17:00;;;;;;;;;;;;;;;-144.99;100.00;52456.25;5087446;28;19958;-76
2022/10/24 06:19:28;;;;;;;;;;;;;;;-144.99;100.00;52431.78;5089942;28;19949;-74
2022/10/24 06:21:54;;;;;;;;;;;;;;;-144.99;100.00;52411.41;5088256;28;19949;-76
2022/10/24 06:24:20;;;;;;;;;;;;;;;-144.99;100.00;52448.09;5085196;28;19955;-74
2022/10/24 06:26:47;;;;;;;;;;;;;;;-144.99;100.00;52419.56;5088348;28;19968;-77
2022/10/24 06:29:13;;;;;;;;;;;;;;;-144.99;100.00;52439.94;5090605;28;20291;-77
2022/10/24 06:31:40;;;;;;;;;;;;;;;-144.99;100.00;52441.97;5089046;28;20440;-75
2022/10/24 06:34:06;;;;;;;;;;;;;;;-144.99;100.00;52407.31;5085790;28;19948;-79
2022/10/24 06:36:35;;;;;;;;;;;;;;;-144.99;100.00;52391.03;5087243;28;19951;-77
2022/10/24 06:39:02;;;;;;;;;;;;;;;-144.99;100.00;52431.78;5084716;28;19966;-78
2022/10/24 06:41:28;;;;;;;;;;;;;;;-144.99;100.00;52386.94;5086820;28;20263;-74
2022/10/24 06:43:55;;;;;;;;;;;;;;;-144.99;100.00;52474.59;5087388;28;19958;-78
2022/10/24 06:46:22;;;;;;;;;;;;;;;-144.99;100.00;52411.41;5089938;28;19954;-76
2022/10/24 06:48:48;;;;;;;;;;;;;;;-144.99;100.00;52391.03;5088731;28;19940;-77
2022/10/24 06:51:15;;;;;;;;;;;;;;;-144.99;100.00;52427.72;5091534;28;19959;-77
2022/10/24 06:53:45;;;;;;;;;;;;;;;-144.99;100.00;52407.31;5090100;28;20208;-77
2022/10/24 06:56:11;;;;;;;;;;;;;;;-144.99;100.00;52419.56;5091173;28;20051;-77
2022/10/24 06:58:38;;;;;;;;;;;;;;;-144.99;100.00;52444.03;5093696;28;19968;-78
2022/10/24 07:01:08;;;;;;;;;;;;;;;-144.99;100.00;52395.09;5098066;28;19924;-76
2022/10/24 07:03:35;;;;;;;;;;;;;;;-144.99;100.00;52433.81;4758875;28;10000574;-76
2022/10/24 07:06:05;;;;;;;;;;;;;;;-144.99;100.00;52448.09;5110903;28;19912;-76
2022/10/24 07:08:31;;;;;;;;;;;;;;;-144.99;100.00;52423.63;5083722;28;20482;-76
2022/10/24 07:10:59;;;;;;;;;;;;;;;-144.99;100.00;52431.78;5086874;28;19944;-77
2022/10/24 07:13:25;;;;;;;;;;;;;;;-144.99;100.00;52427.72;5087793;28;20043;-77
2022/10/24 07:15:53;;;;;;;;;;;;;;;-144.99;100.00;52427.72;5093670;28;19963;-76
2022/10/24 07:18:19;;;;;;;;;;;;;;;-144.99;100.00;52419.56;5092915;28;20028;-75
2022/10/24 07:20:45;;;;;;;;;;;;;;;-144.99;99.57;52407.31;5093942;28;20112;-74
2022/10/24 07:23:12;;;;;;;;;;;;;;;-144.99;97.89;52399.19;5089602;28;19941;-79
2022/10/24 07:25:38;;;;;;;;;;;;;;;-144.99;96.73;52399.19;5096545;28;19965;-78
2022/10/24 07:28:07;;;;;;;;;;;;;;;-144.99;95.14;52409.38;5092639;28;19939;-76
2022/10/24 07:30:33;;;;;;;;;;;;;;;-144.99;94.17;52395.09;5085745;28;19938;-77
2022/10/24 07:33:00;;;;;;;;;;;;;;;-144.99;92.97;52403.25;5085369;28;19947;-76
2022/10/24 07:35:26;;;;;;;;;;;;;;;-144.99;91.93;52407.31;5086916;28;20161;-77
2022/10/24 07:37:53;;;;;;;;;;;;;;;-144.99;91.09;52395.09;5083025;28;20004;-77
2022/10/24 07:40:19;;;;;;;;;;;;;;;-144.99;89.51;52399.19;5085485;28;19924;-76
2022/10/24 07:42:47;;;;;;;;;;;;;;;-144.99;88.60;52407.31;5085952;28;19947;-76
2022/10/24 07:45:15;;;;;;;;;;;;;;;-144.99;87.92;52429.75;5087660;28;19964;-77
2022/10/24 07:47:41;;;;;;;;;;;;;;;-144.99;87.29;52382.88;5084678;28;19947;-77
2022/10/24 07:50:08;;;;;;;;;;;;;;;-144.99;86.40;52391.03;5086321;28;19932;-76
2022/10/24 07:52:35;;;;;;;;;;;;;;;-144.99;86.37;52395.09;5085179;28;19948;-77
2022/10/24 07:55:01;;;;;;;;;;;;;;;-144.99;85.61;52386.94;5087073;28;19944;-77
2022/10/24 07:57:27;;;;;;;;;;;;;;;-144.99;85.12;52374.72;5086523;28;19970;-76
2022/10/24 07:59:54;;;;;;;;;;;;;;;-144.99;84.98;52397.13;5097492;28;19952;-78
2022/10/24 08:02:25;;;;;;;;;;;;;;;-144.99;84.39;52364.53;5109686;28;20055;-78
2022/10/24 08:04:51;;;;;;;;;;;;;;;-144.99;84.15;52403.25;5095334;28;19960;-77
2022/10/24 08:07:18;;;;;;;;;;;;;;;-144.99;83.32;52415.47;5082310;28;20212;-76
2022/10/24 08:09:45;;;;;;;;;;;;;;;-144.99;83.02;52356.38;5086286;28;19939;-77
2022/10/24 08:12:12;;;;;;;;;;;;;;;-144.99;80.66;52391.03;5088966;28;20234;-77
2022/10/24 08:14:39;;;;;;;;;;;;;;;-144.99;80.07;52358.41;5089041;28;20024;-77
2022/10/24 08:17:05;;;;;;;;;;;;;;;-144.99;79.13;52342.09;5085583;28;20051;-77
2022/10/24 08:19:33;;;;;;;;;;;;;;;-144.99;78.27;52325.81;5084828;28;20022;-77
2022/10/24 08:22:00;;;;;;;;;;;;;;;-144.99;75.73;52382.88;5079940;28;19943;-78
2022/10/24 08:24:27;;;;;;;;;;;;;;;-144.99;77.01;52374.72;5085665;28;19956;-78
2022/10/24 08:26:55;;;;;;;;;;;;;;;-144.99;78.27;52382.88;5088938;28;19967;-78
2022/10/24 08:29:22;;;;;;;;;;;;;;;-144.99;78.34;52362.50;5086363;28;19951;-76
2022/10/24 08:31:49;;;;;;;;;;;;;;;-144.99;78.66;52415.47;5087629;28;20181;-77
2022/10/24 08:34:16;;;;;;;;;;;;;;;-144.99;80.11;52358.41;5086894;28;19947;-78
2022/10/24 08:36:44;;;;;;;;;;;;;;;-144.99;80.01;52370.63;5104611;28;19929;-78
2022/10/24 08:39:10;;;;;;;;;;;;;;;-144.99;80.96;52364.53;5088853;28;20454;-77
2022/10/24 08:41:38;;;;;;;;;;;;;;;-144.99;79.95;52382.88;5086775;28;19941;-77
2022/10/24 08:44:06;;;;;;;;;;;;;;;-144.99;79.19;52350.25;5089424;28;20145;-77
2022/10/24 08:46:36;;;;;;;;;;;;;;;-144.99;77.92;52370.63;5093033;28;20040;-78
2022/10/24 08:49:04;;;;;;;;;;;;;;;-144.99;79.17;52386.94;5083870;28;19943;-76
2022/10/24 08:51:36;;;;;;;;;;;;;;;-144.99;79.24;52338.03;5091007;28;19935;-77
2022/10/24 08:54:04;;;;;;;;;;;;;;;-144.99;79.85;52333.94;5090806;28;19946;-76
2022/10/24 08:56:33;;;;;;;;;;;;;;;-144.99;77.45;52358.41;5102624;28;19959;-79
2022/10/24 08:59:00;;;;;;;;;;;;;;;-144.99;76.22;52313.56;5114371;28;19981;-79
2022/10/24 09:01:29;;;;;;;;;;;;;;;-144.99;75.75;52366.56;5098610;28;20033;-75
2022/10/24 09:03:59;;;;;;;;;;;;;;;-144.99;74.65;52358.41;5093923;28;20073;-78
2022/10/24 09:06:26;;;;;;;;;;;;;;;-144.99;72.95;52344.16;5095831;28;20037;-79
2022/10/24 09:08:54;;;;;;;;;;;;;;;-144.99;71.38;52325.81;5091616;28;19954;-77
2022/10/24 09:11:26;;;;;;;;;;;;;;;-144.99;69.70;52362.50;5091619;28;19990;-78
2022/10/24 09:13:52;;;;;;;;;;;;;;;-144.99;68.25;52344.16;5079367;28;19985;-79
2022/10/24 09:16:20;;;;;;;;;;;;;;;-144.99;67.40;52327.84;5092359;28;20624;-78
2022/10/24 09:18:48;;;;;;;;;;;;;;;-144.99;67.42;52342.09;5089227;28;20025;-76
2022/10/24 09:21:15;;;;;;;;;;;;;;;-144.99;66.51;52333.94;5087844;28;20047;-78
2022/10/24 09:23:42;;;;;;;;;;;;;;;-144.99;66.94;52346.19;5096015;28;19960;-78
2022/10/24 09:26:14;;;;;;;;;;;;;;;-144.99;64.69;52315.59;5129201;22;20751;-77
2022/10/24 09:28:42;;;;;;;;;;;;;;;-144.99;64.75;52301.34;5094892;28;19948;-81
2022/10/24 09:31:14;;;;;;;;;;;;;;;-144.99;63.82;52297.25;5101839;28;20345;-78
2022/10/24 09:33:42;;;;;;;;;;;;;;;-144.99;62.28;52327.84;5095874;27;19938;-81
2022/10/24 09:36:11;;;;;;;;;;;;;;;-144.99;61.58;52301.34;5109995;28;19966;-83
2022/10/24 09:38:38;;;;;;;;;;;;;;;-144.99;62.45;52276.88;5106616;28;19957;-82
2022/10/24 09:41:05;;;;;;;;;;;;;;;-144.99;60.71;52285.03;5106948;28;19946;-83
2022/10/24 09:43:38;;;;;;;;;;;;;;;-144.99;59.02;52305.41;5101112;28;19945;-78
2022/10/24 09:46:07;;;;;;;;;;;;;;;-144.99;57.29;52311.53;5108860;28;20034;-82
2022/10/24 09:48:38;;;;;;;;;;;;;;;-144.99;55.56;52301.34;5106805;28;19939;-83
2022/10/24 09:51:05;;;;;;;;;;;;;;;-144.99;55.16;52252.44;5108602;28;20412;-82
2022/10/24 09:53:32;;;;;;;;;;;;;;;-144.99;53.22;52240.19;5097112;28;20435;-82
2022/10/24 09:56:00;;;;;;;;;;;;;;;-144.99;53.04;52280.97;5107147;28;19976;-82
2022/10/24 09:58:31;;;;;;;;;;;;;;;-144.99;53.10;52293.19;5109919;28;19954;-83
2022/10/24 10:00:59;;;;;;;;;;;;;;;-144.99;54.05;52295.22;5100141;28;20337;-83
2022/10/24 10:03:27;;;;;;;;;;;;;;;-144.99;52.64;52260.56;5100921;28;19945;-84
2022/10/24 10:05:55;;;;;;;;;;;;;;;-144.99;52.41;52217.78;5116911;28;20408;-78
2022/10/24 10:08:22;;;;;;;;;;;;;;;-144.99;50.50;52187.19;5112352;28;20076;-83
2022/10/24 10:10:59;;;;;;;;;;;;;;;-144.99;48.52;52164.78;5114731;28;19952;-83
2022/10/24 10:13:27;;;;;;;;;;;;;;;-144.99;47.30;52166.81;5102621;28;19972;-81
2022/10/24 10:15:54;;;;;;;;;;;;;;;-144.99;47.10;52215.75;5111068;28;19976;-79
2022/10/24 10:18:22;;;;;;;;;;;;;;;-144.99;47.02;52146.44;5110113;28;20346;-80
2022/10/24 10:20:58;;;;;;;;;;;;;;;-144.99;45.73;52128.09;5118013;28;19942;-82
2022/10/24 10:23:26;;;;;;;;;;;;;;;-144.99;44.87;52138.28;5115832;28;19938;-80
2022/10/24 10:26:07;;;;;;;;;;;;;;;-144.99;45.64;52117.91;5123442;28;19962;-84
2022/10/24 10:28:34;;;;;;;;;;;;;;;-144.99;44.93;52077.16;4757112;28;9999635;-80
2022/10/24 10:31:00;;;;;;;;;;;;;;;-144.99;44.50;52105.69;5109073;28;19938;-82
2022/10/24 10:33:31;;;;;;;;;;;;;;;-144.99;44.00;52227.97;5099217;28;20315;-81
2022/10/24 10:36:03;;;;;;;;;;;;;;;-144.99;46.07;52189.25;5099018;28;20471;-82
2022/10/24 10:38:43;;;;;;;;;;;;;;;-144.99;46.52;52199.44;5106662;28;20466;-79
2022/10/24 10:41:15;;;;;;;;;;;;;;;-144.99;46.94;52285.03;5108878;28;19948;-83
2022/10/24 10:43:46;;;;;;;;;;;;;;;-144.99;49.34;52280.97;5104018;28;19945;-80
2022/10/24 10:46:16;;;;;;;;;;;;;;;-144.99;50.69;52325.81;5109121;28;19942;-84
2022/10/24 10:48:48;;;;;;;;;;;;;;;-144.99;51.92;52350.25;5129536;27;19996;-82
2022/10/24 10:51:21;;;;;;;;;;;;;;;-144.99;53.56;52362.50;5104011;28;20468;-82
2022/10/24 10:53:50;;;;;;;;;;;;;;;-144.99;53.79;52356.38;5097100;28;20028;-79
2022/10/24 10:56:24;;;;;;;;;;;;;;;-144.99;54.18;52333.94;5099060;28;19924;-81
2022/10/24 10:58:57;;;;;;;;;;;;;;;-144.99;54.09;52362.50;5107983;28;19942;-80
2022/10/24 11:01:26;;;;;;;;;;;;;;;-144.99;54.73;52354.34;5108188;28;19940;-80
2022/10/24 11:03:58;;;;;;;;;;;;;;;-144.99;55.04;52391.03;5109926;28;20405;-82
2022/10/24 11:06:38;;;;;;;;;;;;;;;-144.99;55.60;52391.03;5102110;28;19959;-84
2022/10/24 11:09:22;;;;;;;;;;;;;;;-144.99;56.14;52395.09;5106100;28;20053;-81
2022/10/24 11:11:51;;;;;;;;;;;;;;;-144.99;57.19;52362.50;5102449;28;19994;-81
2022/10/24 11:14:26;;;;;;;;;;;;;;;-144.99;57.39;52386.94;5107274;28;19927;-81
2022/10/24 11:16:53;;;;;;;;;;;;;;;-144.99;57.83;52374.72;5103016;28;19961;-81
2022/10/24 11:19:22;;;;;;;;;;;;;;;-144.99;58.18;52382.88;5108541;28;19946;-82
2022/10/24 11:21:51;;;;;;;;;;;;;;;-144.99;58.05;52393.06;5107972;28;20238;-80
2022/10/24 11:24:18;;;;;;;;;;;;;;;-144.99;58.42;52388.97;5107963;28;19990;-81
2022/10/24 11:26:46;;;;;;;;;;;;;;;-144.99;56.86;52338.03;5089822;28;20153;-81
2022/10/24 11:29:19;;;;;;;;;;;;;;;-144.99;54.94;52338.03;5103424;28;19942;-78
2022/10/24 11:31:48;;;;;;;;;;;;;;;-144.99;54.28;52317.66;5107629;28;19935;-81
2022/10/24 11:34:19;;;;;;;;;;;;;;;-144.99;54.05;52344.16;5100559;28;20037;-80
2022/10/24 11:36:46;;;;;;;;;;;;;;;-144.99;53.82;52386.94;5094927;28;19960;-79
2022/10/24 11:39:18;;;;;;;;;;;;;;;-144.99;53.94;52374.72;5098200;28;19962;-82
2022/10/24 11:41:48;;;;;;;;;;;;;;;-144.99;54.48;52393.06;5099574;28;20314;-80
2022/10/24 11:44:25;;;;;;;;;;;;;;;-144.99;54.89;52354.34;5106832;28;19940;-79
2022/10/24 11:46:56;;;;;;;;;;;;;;;-144.99;55.52;52364.53;5098423;28;20203;-80
2022/10/24 11:49:25;;;;;;;;;;;;;;;-144.99;55.73;52395.09;5103579;28;20738;-80
2022/10/24 11:51:55;;;;;;;;;;;;;;;-144.99;56.15;52368.59;5099469;28;20363;-79
2022/10/24 11:54:25;;;;;;;;;;;;;;;-144.99;56.15;52350.25;5104922;28;20291;-81
2022/10/24 11:56:54;;;;;;;;;;;;;;;-144.99;56.47;52366.56;5105973;28;19957;-78
2022/10/24 11:59:23;;;;;;;;;;;;;;;-144.99;56.79;52374.72;5098714;28;19950;-80
2022/10/24 12:02:07;;;;;;;;;;;;;;;-144.99;56.76;52366.56;5101865;28;19944;-79
2022/10/24 12:04:55;;;;;;;;;;;;;;;-144.99;57.00;52395.09;5101423;28;19938;-78
2022/10/24 12:07:42;;;;;;;;;;;;;;;-144.99;56.47;52362.50;5093013;28;20378;-81
2022/10/24 12:10:19;;;;;;;;;;;;;;;-144.99;56.94;52350.25;5104693;28;20398;-80
2022/10/24 12:12:55;;;;;;;;;;;;;;;-144.99;56.76;52386.94;5102433;28;19964;-81
2022/10/24 12:15:30;;;;;;;;;;;;;;;-144.99;56.71;52338.03;5095291;28;20412;-77
2022/10/24 12:18:04;;;;;;;;;;;;;;;-144.99;56.64;52325.81;5091759;28;20321;-78
2022/10/24 12:20:31;;;;;;;;;;;;;;;-144.99;56.78;52415.47;5103178;28;19938;-81
2022/10/24 12:22:59;;;;;;;;;;;;;;;-144.99;57.08;52407.31;5106142;28;20167;-81
2022/10/24 12:25:32;;;;;;;;;;;;;;;-144.99;57.19;52395.09;5098448;28;20335;-78
2022/10/24 12:27:59;;;;;;;;;;;;;;;-144.99;57.42;52336.00;5106569;28;19970;-82